createdAt,value
2022-10-27T00:02:02.782Z,88.65
2022-10-27T00:04:30.943Z,89.77
2022-10-27T00:06:59.127Z,88.90
2022-10-27T00:09:27.292Z,89.63
2022-10-27T00:11:56.421Z,88.38
2022-10-27T00:14:24.625Z,88.13
2022-10-27T00:16:55.165Z,88.12
2022-10-27T00:19:25.646Z,87.76
2022-10-27T00:21:54.170Z,87.49
2022-10-27T00:24:23.009Z,87.79
2022-10-27T00:26:51.518Z,87.55
2022-10-27T00:29:19.730Z,87.19
2022-10-27T00:31:48.090Z,87.74
2022-10-27T00:34:16.451Z,87.30
2022-10-27T00:36:44.647Z,87.25
2022-10-27T00:39:12.855Z,87.71
2022-10-27T00:41:43.819Z,87.62
2022-10-27T00:44:36.393Z,88.26
2022-10-27T00:47:10.661Z,88.09
2022-10-27T00:49:46.526Z,88.04
2022-10-27T00:52:27.793Z,88.82
2022-10-27T00:55:02.121Z,88.73
2022-10-27T00:57:32.241Z,88.88
2022-10-27T01:00:03.773Z,88.67
2022-10-27T01:02:34.019Z,88.96
2022-10-27T01:05:11.656Z,88.47
2022-10-27T01:07:42.757Z,88.57
2022-10-27T01:10:13.017Z,88.92
2022-10-27T01:12:42.198Z,89.17
2022-10-27T01:15:12.000Z,88.56
2022-10-27T01:18:03.537Z,88.12
2022-10-27T01:20:46.746Z,88.78
2022-10-27T01:23:58.447Z,88.71
2022-10-27T01:26:50.586Z,88.33
2022-10-27T01:29:35.368Z,88.66
2022-10-27T01:32:40.428Z,89.02
2022-10-27T01:35:35.287Z,89.56
2022-10-27T01:38:17.800Z,89.35
2022-10-27T01:40:53.585Z,88.29
2022-10-27T01:43:26.386Z,88.15
2022-10-27T01:45:56.487Z,89.18
2022-10-27T01:48:25.208Z,89.19
2022-10-27T01:51:01.874Z,89.22
2022-10-27T01:53:35.005Z,88.74
2022-10-27T01:56:06.120Z,88.43
2022-10-27T01:59:11.218Z,88.41
2022-10-27T02:02:24.451Z,88.15
2022-10-27T02:05:26.622Z,88.37
2022-10-27T02:08:16.162Z,88.00
2022-10-27T02:11:04.095Z,88.28
2022-10-27T02:13:36.214Z,87.91
2022-10-27T02:16:09.031Z,88.20
2022-10-27T02:18:54.101Z,88.70
2022-10-27T02:21:25.248Z,88.64
2022-10-27T02:23:54.149Z,88.61
2022-10-27T02:26:33.657Z,88.68
2022-10-27T02:29:18.342Z,89.24
2022-10-27T02:31:52.074Z,89.07
2022-10-27T02:34:20.798Z,89.46
2022-10-27T02:36:48.975Z,89.53
2022-10-27T02:39:17.120Z,89.82
2022-10-27T02:41:45.286Z,91.07
2022-10-27T02:44:13.369Z,90.68
2022-10-27T02:46:43.601Z,90.25
2022-10-27T02:49:13.785Z,89.89
2022-10-27T02:51:41.889Z,89.37
2022-10-27T02:54:10.037Z,89.25
2022-10-27T02:56:38.191Z,89.55
2022-10-27T02:59:06.364Z,89.82
2022-10-27T03:01:34.615Z,90.18
2022-10-27T03:04:02.967Z,90.47
2022-10-27T03:06:31.150Z,89.85
2022-10-27T03:08:59.480Z,90.05
2022-10-27T03:11:27.687Z,90.33
2022-10-27T03:13:55.847Z,90.16
2022-10-27T03:16:23.989Z,90.59
2022-10-27T03:18:52.181Z,91.27
2022-10-27T03:21:20.547Z,91.08
2022-10-27T03:23:48.704Z,90.79
2022-10-27T03:26:16.855Z,90.97
2022-10-27T03:28:45.007Z,91.10
2022-10-27T03:31:13.151Z,90.37
2022-10-27T03:33:41.294Z,89.99
2022-10-27T03:36:11.915Z,89.92
2022-10-27T03:38:40.286Z,89.95
2022-10-27T03:41:08.898Z,89.82
2022-10-27T03:43:37.021Z,90.09
2022-10-27T03:46:05.316Z,90.22
2022-10-27T03:48:33.531Z,89.95
2022-10-27T03:51:01.697Z,90.48
2022-10-27T03:53:29.856Z,90.42
2022-10-27T03:55:57.996Z,90.76
2022-10-27T03:58:26.138Z,90.85
2022-10-27T04:00:54.525Z,90.59
2022-10-27T04:03:22.678Z,90.67
2022-10-27T04:05:50.847Z,90.19
2022-10-27T04:08:19.063Z,90.24
2022-10-27T04:10:48.061Z,90.47
2022-10-27T04:13:16.330Z,90.57
2022-10-27T04:15:44.435Z,90.17
2022-10-27T04:18:13.091Z,90.04
2022-10-27T04:20:41.409Z,89.95
2022-10-27T04:23:09.555Z,90.85
2022-10-27T04:25:37.785Z,90.99
2022-10-27T04:28:08.635Z,90.77
2022-10-27T04:30:37.467Z,91.01
2022-10-27T04:33:05.682Z,91.22
2022-10-27T04:38:07.070Z,90.78
2022-10-27T04:40:35.186Z,90.72
2022-10-27T04:43:03.371Z,90.54
2022-10-27T04:45:31.515Z,90.51
2022-10-27T04:47:59.926Z,91.52
2022-10-27T04:50:28.337Z,91.46
2022-10-27T04:52:58.770Z,91.38
2022-10-27T04:55:27.753Z,91.52
2022-10-27T04:57:56.171Z,91.59
2022-10-27T05:00:25.359Z,91.15
2022-10-27T05:02:57.051Z,91.00
2022-10-27T05:05:29.040Z,91.06
2022-10-27T05:08:03.322Z,91.01
2022-10-27T05:10:34.225Z,90.78
2022-10-27T05:13:02.568Z,90.47
2022-10-27T05:15:31.044Z,91.11
2022-10-27T05:17:59.195Z,91.13
2022-10-27T05:20:27.712Z,91.29
2022-10-27T05:22:55.933Z,91.44
2022-10-27T05:25:24.054Z,91.75
2022-10-27T05:27:52.521Z,91.45
2022-10-27T05:30:20.869Z,91.29
2022-10-27T05:32:50.512Z,91.10
2022-10-27T05:35:19.094Z,90.87
2022-10-27T05:37:47.600Z,90.96
2022-10-27T05:40:16.753Z,91.74
2022-10-27T05:42:56.404Z,91.74
2022-10-27T05:45:25.029Z,91.86
2022-10-27T05:48:02.106Z,91.71
2022-10-27T05:50:31.246Z,91.79
2022-10-27T05:52:59.957Z,91.64
2022-10-27T05:55:28.530Z,92.22
2022-10-27T05:58:00.377Z,92.84
2022-10-27T06:00:32.651Z,92.59
2022-10-27T06:03:03.574Z,91.90
2022-10-27T06:05:33.757Z,91.40
2022-10-27T06:08:02.005Z,91.33
2022-10-27T06:10:30.151Z,90.95
2022-10-27T06:13:06.410Z,91.08
2022-10-27T06:15:35.192Z,91.67
2022-10-27T06:18:03.828Z,91.51
2022-10-27T06:20:32.084Z,92.60
2022-10-27T10:03:09.438Z,57.13
2022-10-27T10:05:38.295Z,54.17
2022-10-27T10:08:14.685Z,53.88
2022-10-27T10:10:56.519Z,53.83
2022-10-27T10:13:26.934Z,52.45
2022-10-27T10:16:16.630Z,53.11
2022-10-27T10:19:07.427Z,52.70
2022-10-27T10:21:49.358Z,52.27
2022-10-27T10:24:39.365Z,51.92
2022-10-27T10:27:07.565Z,51.43
2022-10-27T10:29:50.865Z,51.43
2022-10-27T10:32:23.898Z,50.45
2022-10-27T10:34:53.807Z,49.39
2022-10-27T10:37:46.872Z,49.23
2022-10-27T10:40:15.167Z,48.62
2022-10-27T10:42:59.877Z,49.35
2022-10-27T10:45:34.050Z,48.35
2022-10-27T10:48:15.821Z,48.17
2022-10-27T10:50:48.466Z,46.36
2022-10-27T10:53:31.609Z,47.18
2022-10-27T10:56:06.548Z,47.22
2022-10-27T10:58:36.814Z,47.84
2022-10-27T11:01:07.818Z,48.05
2022-10-27T11:03:49.228Z,48.81
2022-10-27T11:06:21.047Z,49.48
2022-10-27T11:08:58.831Z,49.99
2022-10-27T11:11:34.520Z,49.74
2022-10-27T11:14:11.640Z,48.98
2022-10-27T11:16:51.378Z,48.15
2022-10-27T11:19:23.905Z,47.72
2022-10-27T11:22:03.118Z,47.76
2022-10-27T11:25:15.398Z,47.67
2022-10-27T11:27:57.652Z,48.03
2022-10-27T11:30:28.287Z,47.88
2022-10-27T11:33:51.922Z,46.44
2022-10-27T11:36:36.154Z,44.89
2022-10-27T11:39:15.268Z,45.24
2022-10-27T11:42:10.033Z,44.43
2022-10-27T11:45:17.469Z,44.64
2022-10-27T11:47:48.742Z,42.04
2022-10-27T11:50:37.584Z,41.55
2022-10-27T11:53:10.848Z,41.21
2022-10-27T11:56:27.744Z,41.45
2022-10-27T11:59:21.172Z,40.38
2022-10-27T12:02:10.811Z,40.54
2022-10-27T12:05:08.766Z,40.03
2022-10-27T12:08:36.171Z,40.31
2022-10-27T12:11:28.998Z,39.65
2022-10-27T12:14:07.682Z,40.28
2022-10-27T12:16:43.876Z,39.81
2022-10-27T12:19:27.142Z,40.02
2022-10-27T12:21:59.039Z,40.31
2022-10-27T12:24:40.016Z,39.15
2022-10-27T12:27:36.132Z,37.29
2022-10-27T12:30:15.644Z,37.02
2022-10-27T12:33:05.463Z,36.80
2022-10-27T12:35:50.000Z,38.06
2022-10-27T12:38:36.490Z,38.84
2022-10-27T12:42:08.888Z,39.68
2022-10-27T12:44:43.070Z,42.07
2022-10-27T12:47:54.290Z,43.48
2022-10-27T12:51:20.171Z,45.71
2022-10-27T12:53:53.625Z,46.18
2022-10-27T12:56:49.002Z,46.95
2022-10-27T12:59:50.658Z,48.41
2022-10-27T13:02:23.571Z,48.45
2022-10-27T13:05:22.687Z,48.23
2022-10-27T13:09:00.963Z,47.65
2022-10-27T13:11:53.465Z,46.88
2022-10-27T13:14:33.359Z,46.29
2022-10-27T13:17:26.926Z,45.87
2022-10-27T13:20:24.719Z,44.69
2022-10-27T13:23:01.079Z,44.28
2022-10-27T13:25:43.283Z,44.32
2022-10-27T13:28:46.376Z,44.02
2022-10-27T13:31:26.033Z,43.59
2022-10-27T13:34:19.616Z,42.83
2022-10-27T13:36:47.933Z,42.84
2022-10-27T13:39:16.564Z,43.39
2022-10-27T13:42:07.559Z,43.12
2022-10-27T13:44:39.282Z,42.50
2022-10-27T13:47:13.625Z,42.64
2022-10-27T13:49:41.713Z,42.65
2022-10-27T13:52:16.436Z,42.75
2022-10-27T13:55:08.959Z,43.90
2022-10-27T13:58:12.065Z,44.81
2022-10-27T14:01:23.980Z,46.60
2022-10-27T14:04:51.219Z,47.43
2022-10-27T14:07:19.466Z,48.65
2022-10-27T14:09:51.671Z,50.07
2022-10-27T14:12:35.068Z,51.28
2022-10-27T14:15:10.276Z,54.27
2022-10-27T14:17:42.619Z,54.16
2022-10-27T14:20:28.153Z,55.30
2022-10-27T14:23:18.177Z,56.82
2022-10-27T14:25:47.072Z,58.60
2022-10-27T14:28:21.056Z,58.52
2022-10-27T14:31:18.998Z,61.80
2022-10-27T14:33:48.306Z,63.19
2022-10-27T14:39:08.730Z,63.22
2022-10-27T14:41:41.087Z,64.75
2022-10-27T14:44:21.069Z,62.54
2022-10-27T14:46:50.816Z,64.57
2022-10-27T14:49:43.572Z,65.49
2022-10-27T14:52:41.316Z,67.14
2022-10-27T14:55:34.404Z,67.51
2022-10-27T14:58:03.966Z,66.97
2022-10-27T15:00:36.048Z,67.34
2022-10-27T15:03:09.006Z,68.57
2022-10-27T15:05:47.100Z,67.74
2022-10-27T15:08:22.872Z,68.56
2022-10-27T15:10:54.143Z,72.23
2022-10-27T15:13:25.123Z,72.25
2022-10-27T15:15:59.258Z,71.06
2022-10-27T15:18:39.882Z,70.90
2022-10-27T15:21:27.158Z,71.77
2022-10-27T15:24:06.128Z,71.96
2022-10-27T15:26:34.815Z,73.04
2022-10-27T15:31:42.296Z,74.09
2022-10-27T15:34:37.792Z,74.03
2022-10-27T15:37:33.786Z,74.44
2022-10-27T15:40:45.272Z,74.33
2022-10-27T15:43:25.973Z,75.61
2022-10-27T15:46:30.096Z,75.92
2022-10-27T15:49:02.024Z,74.87
2022-10-27T15:51:44.293Z,75.64
2022-10-27T15:54:40.684Z,75.33
2022-10-27T15:57:33.274Z,74.90
2022-10-27T16:00:19.726Z,78.38
2022-10-27T16:02:51.901Z,78.70
2022-10-27T16:05:32.461Z,79.05
2022-10-27T16:08:09.609Z,79.92
2022-10-27T16:10:40.731Z,78.70
2022-10-27T16:13:17.109Z,77.04
2022-10-27T16:15:48.205Z,76.30
2022-10-27T16:18:22.142Z,76.01
2022-10-27T16:20:50.333Z,76.16
2022-10-27T16:23:18.496Z,76.80
2022-10-27T16:25:49.069Z,76.92
2022-10-27T16:28:22.418Z,76.89
2022-10-27T16:30:50.690Z,76.82
2022-10-27T16:33:22.965Z,76.74
2022-10-27T16:35:51.649Z,77.65
2022-10-27T16:38:19.840Z,78.13
2022-10-27T16:40:48.467Z,78.71
2022-10-27T16:43:35.749Z,78.24
2022-10-27T16:46:05.295Z,78.94
2022-10-27T16:48:36.999Z,79.35
2022-10-27T16:51:07.351Z,78.14
2022-10-27T16:53:35.730Z,77.79
2022-10-27T16:56:07.240Z,78.69
2022-10-27T16:58:45.488Z,79.03
2022-10-27T17:01:22.470Z,80.51
2022-10-27T17:03:50.708Z,78.95
2022-10-27T17:06:22.288Z,79.30
2022-10-27T17:08:51.037Z,79.28
2022-10-27T17:11:19.287Z,79.73
2022-10-27T17:13:47.966Z,79.72
2022-10-27T17:16:18.580Z,79.84
2022-10-27T17:18:47.972Z,80.98
2022-10-27T17:21:16.228Z,79.65
2022-10-27T17:23:45.861Z,80.01
2022-10-27T17:26:15.539Z,79.86
2022-10-27T17:28:50.058Z,80.14
2022-10-27T17:31:34.262Z,80.38
2022-10-27T17:34:03.158Z,79.71
2022-10-27T17:36:31.370Z,80.52
2022-10-27T17:39:00.348Z,82.38
2022-10-27T17:41:29.699Z,81.14
2022-10-27T17:43:57.938Z,81.63
2022-10-27T17:46:27.363Z,81.38
2022-10-27T17:49:01.636Z,82.19
2022-10-27T17:51:33.008Z,82.63
2022-10-27T17:54:05.361Z,82.20
2022-10-27T17:56:36.671Z,82.41
2022-10-27T17:59:14.510Z,82.16
2022-10-27T18:01:43.115Z,82.90
2022-10-27T18:04:12.493Z,83.31
2022-10-27T18:06:45.044Z,83.20
2022-10-27T18:09:13.767Z,83.05
2022-10-27T18:11:42.658Z,83.95
2022-10-27T18:14:16.878Z,84.13
2022-10-27T18:16:45.125Z,84.27
2022-10-27T18:19:15.903Z,84.22
2022-10-27T18:21:47.205Z,82.91
2022-10-27T18:24:17.343Z,83.30
2022-10-27T18:26:48.350Z,83.67
2022-10-27T18:29:21.052Z,83.63
2022-10-27T18:31:52.267Z,83.35
2022-10-27T18:34:20.595Z,83.86
2022-10-27T18:36:48.824Z,84.94
2022-10-27T18:39:19.771Z,84.24
2022-10-27T18:41:49.768Z,84.29
2022-10-27T18:44:19.474Z,84.43
2022-10-27T18:46:47.702Z,84.44
2022-10-27T18:49:25.141Z,84.45
2022-10-27T18:51:59.190Z,84.59
2022-10-27T18:54:27.468Z,85.38
2022-10-27T18:56:56.243Z,85.29
2022-10-27T18:59:24.524Z,85.40
2022-10-27T19:01:53.516Z,84.65
2022-10-27T19:04:21.967Z,84.80
2022-10-27T19:06:50.912Z,84.89
2022-10-27T19:09:19.257Z,84.87
2022-10-27T19:11:48.026Z,84.90
2022-10-27T19:14:16.286Z,84.87
2022-10-27T19:16:44.566Z,84.78
2022-10-27T19:19:13.132Z,84.94
2022-10-27T19:21:41.601Z,84.89
2022-10-27T19:24:11.621Z,86.10
2022-10-27T19:26:39.915Z,85.74
2022-10-27T19:29:08.401Z,85.45
2022-10-27T19:31:38.613Z,85.91
2022-10-27T19:36:42.157Z,86.20
2022-10-27T19:39:12.316Z,86.28
2022-10-27T19:41:41.850Z,86.32
2022-10-27T19:44:12.393Z,85.99
2022-10-27T19:46:41.359Z,85.87
2022-10-27T19:49:16.806Z,85.83
2022-10-27T19:51:45.572Z,86.59
2022-10-27T19:54:18.219Z,86.33
2022-10-27T19:56:48.579Z,86.57
2022-10-27T19:59:25.722Z,87.08
2022-10-27T20:02:11.701Z,87.10
2022-10-27T20:04:40.168Z,87.40
2022-10-27T20:07:09.259Z,88.10
2022-10-27T20:09:37.521Z,87.37
2022-10-27T20:12:06.538Z,86.85
2022-10-27T20:14:36.496Z,87.04
2022-10-27T20:17:05.558Z,86.67
2022-10-27T20:19:37.991Z,86.97
2022-10-27T20:22:06.921Z,88.00
2022-10-27T20:24:35.399Z,88.49
2022-10-27T20:27:03.912Z,88.11
2022-10-27T20:29:35.572Z,86.84
2022-10-27T20:32:04.409Z,86.73
2022-10-27T20:34:36.079Z,87.69
2022-10-27T20:37:08.028Z,87.66
2022-10-27T20:39:36.861Z,87.52
2022-10-27T20:42:05.179Z,87.40
2022-10-27T20:44:33.709Z,87.63
2022-10-27T20:47:01.964Z,88.12
2022-10-27T20:49:30.200Z,87.80
2022-10-27T20:51:58.473Z,86.98
2022-10-27T20:54:27.299Z,86.75
2022-10-27T21:07:56.081Z,88.33
2022-10-27T21:10:24.507Z,88.32
2022-10-27T21:12:52.827Z,88.34
2022-10-27T21:15:21.184Z,88.17
2022-10-27T21:20:17.564Z,87.87
2022-10-27T21:22:45.837Z,87.91
2022-10-27T21:25:14.020Z,87.70
2022-10-27T21:27:42.236Z,87.75
2022-10-27T21:30:11.687Z,87.95
2022-10-27T21:32:39.925Z,88.37
2022-10-27T21:35:08.880Z,87.80
2022-10-27T21:37:37.065Z,87.79
2022-10-27T21:40:06.618Z,87.50
2022-10-27T21:42:35.089Z,87.69
2022-10-27T21:45:03.634Z,87.71
2022-10-27T21:47:33.790Z,87.78
2022-10-27T21:50:01.987Z,87.87
2022-10-27T21:52:30.321Z,87.75
2022-10-27T21:54:58.500Z,88.00
2022-10-27T21:57:28.212Z,87.96
2022-10-27T21:59:56.899Z,87.97
2022-10-27T22:02:25.179Z,87.83
2022-10-27T22:04:53.465Z,87.65
2022-10-27T22:07:21.927Z,88.44
2022-10-27T22:09:50.151Z,88.89
2022-10-27T22:12:18.378Z,89.79
2022-10-27T22:14:46.755Z,89.40
2022-10-27T22:17:15.329Z,89.27
2022-10-27T22:19:44.300Z,88.90
2022-10-27T22:22:12.529Z,88.81
2022-10-27T22:24:41.001Z,89.01
2022-10-27T22:27:09.471Z,88.94
2022-10-27T22:29:37.896Z,89.16
2022-10-27T22:32:06.296Z,88.97
2022-10-27T22:34:34.665Z,89.11
2022-10-27T22:37:03.057Z,89.33
2022-10-27T22:39:31.333Z,89.62
2022-10-27T22:41:59.734Z,89.81
2022-10-27T22:44:28.186Z,90.19
2022-10-27T22:46:56.796Z,90.02
2022-10-27T23:00:25.045Z,89.92
2022-10-27T23:02:53.893Z,90.04
2022-10-27T23:05:22.499Z,89.96
2022-10-27T23:07:50.908Z,89.43
2022-10-27T23:10:19.533Z,89.30
2022-10-27T23:12:47.938Z,89.52
2022-10-27T23:15:16.604Z,89.14
2022-10-27T23:17:45.010Z,89.50
2022-10-27T23:20:13.539Z,89.26
2022-10-27T23:22:42.029Z,88.92
2022-10-27T23:25:10.727Z,89.09
2022-10-27T23:27:39.287Z,89.16
2022-10-27T23:41:11.499Z,90.66
2022-10-27T23:43:42.391Z,90.75
2022-10-27T23:46:11.488Z,90.62
2022-10-27T23:48:40.639Z,90.89
2022-10-27T23:51:11.328Z,90.65
2022-10-27T23:53:40.884Z,90.94
2022-10-27T23:56:11.696Z,91.07
2022-10-27T23:58:44.233Z,91.01
